Timeline UpdatesTrip UpdatesNews PostsPvt Posts♥♥Travel TipsAdmin PostsConv PostsFollowed PostsChat RequestsBlog PostsPNR Posts

Disclaimer
Search
 
 
Sun Nov 23, 2014 14:13:03 ISTHomeTrainsΣChainsAtlasPNRForumGalleryNewsFAQTripsMembersLoginFeedback
No Recent News for this Train
Other Trains in the News **new
Latest...
.
Sun Feb 23, 2014 (12:51AM)
⇐ Return Journey: Train# 59441

59442/Ahmedabad Mumbai Central Passenger

Time-Table HAS CHANGED.
Sep 02 2014 (11:55PM)
Change Departure Station:
Change Arrival Station:
Post a Train Travel TipPost a Train Travel Tip **new
Post a Comment/Question/Picture/VideoPost a Comment/Question/Picture/Video
Pantry/Catering
✕ NO Pantry Car
✕ NO Catering
RSA - Rake Sharing
59439/59440 and 59441/59442; Both Mumbai Central Ahmedabad Passengers Share rakes
Rake/Coach Composition
3 Sleeper and unreserved coaches.; Sleeper coach from 59076 Bhusaval Surat passenger is attached to this train at Surat.; 2AC coach attached from Surat.
Loco
WCAM-1
News    PNR    Forum    Time-Table    Availability    Fare Chart    Map    Arr/Dep History    Trips    Gallery    ΣChains    X/O    Timeline    
Travel Time: 2h 21m    4 halts    Distance: 72 km    Avg Speed: 30 km/hr
Type: Passenger
Zone: WR/Western
Departs @ 02:14 (Avg 42m late)
Platform# 2
SMTWTFS
Saphale/SAH 
Arrives @ 04:35 (Avg 13m late)
Platform# 5
SMTWTFS
Mumbai Central/BCT 

4 halts. 25 intermediate Stations between Saphale and Mumbai Central

Show ALL intermediate Stations  Show Old Time-Table

#TrkCodeStation NameX/OArrivesAvgDepartsAvgHaltPFDay#KmSpeedElevZoneAddress
1/==/ADIAhmedabad Junction (12)  -12:40+2011-420.81751mWRAhmedabad, Gujarat
2/==/MANManinagar (2)  12:51+012:53+02m21-417.74850mWRAhmadabad, Gujarat
3/==/VTAVatva (4)X  12:59+2213:01+242m--1-412.92649mWRDist. Ahmedabad 382445, Gujarat
4/==/GERGeratpur (2)  13:13+2813:14+291m--1-407.64044mWRAhmadabad, Gujarat
5/==/BJDBarejadi Nandej (3)X  13:19+3013:21+322m--1-404.24442mWRBareja-Barejadi Rd, Gujarat
6/==/KANJKanij (3)X  13:27+3413:29+352m--1-399.93439mWRBareja-Barejadi Rd, Gujarat
7/==/NEPNenpur (2)  13:34-13:36-2m--1-397.05035mWRState Highway 3, Gujarat
8/==/MHDMahemdavad Kheda Road (4)X  13:41+3613:43+392m--1-392.86237mWRMahemdavad, Gujarat
9/==/GTEGothaj (2)  13:51+4113:53+442m--1-384.54632mWRState Highway 3, Gujarat
10/==/NDNadiad Junction (4)  14:05+4314:10+405m31-375.34737mWRNadiad, Gujarat
11/==/UTDUtarsanda (4)  14:17+4314:19+432m--1-369.84740mWRUttarsanda, Gujarat
12/==/KBRVKanjari Boriyavi Junction (4)  14:26+4414:28+462m--1-364.34039mWRKanjari, Gujarat
13/--/ANNDAnand Junction (6)X  14:39+4514:44+435m11-356.85244mWRAnand, Gujarat
14/==/VXDVadod (3)  14:52+4414:54+452m--1-350.04144mWRAnand District, Gujarat
15/==/ADDAdas Road (4)  15:00+4615:02+452m--1-345.94642mWRNational Highway 8, Gujarat
16/==/VDAVasad Junction (3)  15:08+4515:10+462m--1-341.33040mWRVasad, Gujarat
17/==/NDRNandesari (2)  15:16 15:20-15:18 15:22-2m--1-336.34142mWRNandesari, Gujarat
18/==/RNORanoli (2)O  15:24 15:28+4215:26 15:30+432m--1-332.12139mWRVadodara District, Gujarat
19/==/BJWBajva (3)X  15:37 15:41+4415:39 15:43+452m--1-328.31738mWRVadodara, Gujarat
20/==/BRCVadodara Junction (7)O  16:02 16:08+3816:22 16:28+5520m31-321.13636mWRVadodara 390005, Gujarat
21/==/VSVishvamitri Junction (4)X  16:29 16:33+1:0916:31 16:35+1:082m--1-318.14930mWRVadodara, Gujarat
22/==/MPRMakarpura (4)O  16:38 16:42+1:0616:40 16:44+1:062m--1-312.44830mWRVadodara, Gujarat
23/==/VRMVarnama (2)XO  16:46 16:51+1:0816:48 16:53+1:082m--1-306.83428mWRVadodara, Gujarat
24/==/ITAItola (4)XO  16:59 17:00+1:0717:01 17:03+1:062 3m--1-302.82927mWRNational Highway 8 Vadodara, Gujarat
25/==/KSPRKashipura Sarar (2)XO  17:07 17:11+1:0517:09 17:13+1:062m--1-299.04726mWRGIDC Industrial Area, Gujarat
26/==/MYGMiyagam Karjan (2)  17:19 17:23+1:0217:21 17:25+1:012m11-291.26029mWRKarjan, Gujarat
27/==/LKDLakodara (4)O  17:29 17:33+1:0317:31 17:35+1:042m--1-283.25426mWRNH 8, Gujarat
28/==/PLJPalej (4)  17:39 17:43+1:0517:41 17:45+1:052m--1-276.05729mWRPalej, Gujarat
29/==/VREVarediya (4)X  17:48 17:52+1:0617:50 17:54+1:092m--1-269.45821mWRNH 8, Gujarat
30/==/NIUNabipur (3)X  17:57 18:01+1:1017:59 18:03+1:092m--1-262.66124mWRNabipur, Gujarat
31/==/CVJChavaj (2)X  18:06 18:10+1:1018:08 18:12+1:092m--1-255.62520mWRBharuch, Gujarat
32/==/BHBharuch Junction (5)X  18:20 18:24+1:0518:25 18:29+1:085m51-250.66219mWRBharuch, Gujarat
33/==/AKVAnkleshwar Junction (4)XO  18:34 18:38+1:0918:36 18:40+1:122m21-241.23319mWRAnkleshwar, Gujarat
34/==/PAOPanoli (3)X  19:01 18:59+1:1019:03 19:01+1:102m--1-230.91429mWRPanoli, Gujarat
35/==/HATHathuran (2)X  19:18 19:17-19:19 19:18-1m--1-227.16632mWRKosamba, Gujarat
36/==/KSBKosamba Junction (3)XO  19:24 19:22+1:0119:26 19:24+1:012m--1-222.75830mWRKosamba, Gujarat
37/==/KIMKim (2)O  19:34 19:32+1:0219:36 19:34+1:042m--1-214.93018mWRNH 8, Gujarat
38/==/SYNSayan (3)O  19:56 19:54+5819:58 19:56+582m--1-205.01221mWRSayan Satellite town, Gujarat
39/==/GTXGothangam (2)XO  20:13 20:11+5020:14 20:13+501 2m--1-202.02019mWRAmroli Sayan Rd, Gujarat
40/==/KSEKosad (2)X  20:26 20:24+4420:28 20:26+452m--1-198.3817mWRSurat, Gujarat
41/==/URNUtran (3)X  20:50 20:49+2720:52 20:51+272m--1-195.22615mWRSurat, Gujarat
42/==/STSurat (4)XO  21:00+3021:30+3930m31-191.33419mWRSurat 395001, Gujarat
43/==/UDNUdhna Junction (3)  21:37+5021:38+511m21-187.33616mWRUdhna 394210, Gujarat
44/==/BHETBhestan (2)X  21:46+5221:47+531m21-182.54913mWRSurat, Gujarat
45/==/SCHSachin (3)XO  21:54+5221:55+531m--1-176.85011mWRKansad Road Sachin, Gujarat
46/==/MRLMaroli (3)X  22:03+5222:04+521m--1-170.17215mWRMaroli, Gujarat
47/==/NVSNavsari (3)X  22:11+5122:13+512m--1-161.74514mWRNavsari, Gujarat
48/==/GNSTGandhi Smriti (2)O  22:17-22:19-2m--1-158.76516mWRGandhi Smriti Navsari, Gujarat
49/==/VDHVedchha (3)XO  22:24+5222:26+542m--1-153.23413mWRNavsari, Gujarat
50/==/ACLAncheli (2)X  22:32-22:33-1m--1-149.95720mWRNavsari, Gujarat
51/==/AMLAmalsad (3)  22:37+5422:39+532m--1-146.15612mWRAmalsad, Gujarat
52/==/BIMBilimora Junction (4)O  22:45+5222:47+522m--1-140.55411mWRBilimora, Gujarat
53/==/DGIDungri (3)X  22:57+5222:58+521m--1-131.52420mWRNH 8, Gujarat
54/==/BLValsad (3)X  23:20+4023:30+3810m31-122.66415mWRValsad, Gujarat
55/==/PADPardi (3)X  23:40+4423:42+432m--1-111.96019mWRValsad, Gujarat
56/==/UVDUdvada (3)  23:48+4323:50+432m--1-105.95218mWRUdvada, Gujarat
57/==/VAPIVapi (3)XO  00:01+3900:02+431m--2-96.35527mWRVapi, Gujarat
58/==/KEBKarambeli (2)  00:09+000:11+02m--2-89.94829mWRNational Highway 8, Gujarat
59/==/BLDBhilad (3)X  00:17+4900:19+482m--2-85.16933mWRBhilad, Gujarat
60/==/SJNSanjan (3)X  00:29+4800:31+492m--2-73.55422mWRSanjan, Gujarat
61/==/UBRUmbargam Road (3)X  00:37+5000:39+502m--2-68.16930mWRUmbergaon, Gujarat
62/==/GVDGholvad (4)XO  00:47+5100:50+513m--2-59.04814mWRGholvad, Maharashtra
63/==/DRDDahanu Road (5)XO  01:04+4801:08+474m--2-47.86212mWRDahanu, Maharashtra
64/==/VGNVangaon (3)XO  01:20+4501:23+443m--2-35.57111mWRDist. Palghar, Maharashtra
65/==/BORBoisar (3)X  01:31+4701:34+453m32-26.15217mWRBoisar Tel.no-02525-266626, Maharashtra
66/==/PLGPalghar (3)  01:47+4401:50+463m--2-14.84619mWRPalghar, Maharashtra
67/==/KLVKelve Road (3)O  02:01+4302:03+432m--2-6.44810mWRDist. Palghar, Maharashtra
68/==/SAHSaphale (2)»O  02:11+4302:14+423m220.0328mWRDist. Palghar, Maharashtra
69/==/VRVirar (8)  02:45+3002:50+295m--216.3466mWRDist. Palghar, Maharashtra
70/==/BSRVasai Road (7)  03:01+2803:03+282m5224.7617mWRVasai 401202, Maharashtra
71/==/BVIMumbai Borivali (8)  03:20+2203:25+215m5242.13819mWRMumbai - 400092, Maharashtra
72/==/DDRMumbai Dadar Western (6)  04:02+1804:05+223m5265.9126mWRMumbai, Maharashtra
73/==/BCTMumbai Central (9)•  04:35+13-5271.8-3mWRMumbai 400008, Maharashtra
Scroll to Top
Scroll to Bottom